Woodside, Louisiana
Current Conditions -  °F | °C
As of 10:55 PM on Monday 20 Oct 2014 (Local Time) from KHZR Reporting Station
Clear Clear  
Wind Chill: 61°   Ceiling: Unl
Heat Index: 61°   Visibility: 10mi
Dew Point: 55°   Wind: 3mph
Humidity: 81%   Direction: 20°NNE
Pressure: 30.04"   Gusts: NA
Location:  30.6648°N, 91.7944°W
Report Text: KHZR 210355Z AUTO 02003KT 10SM CLR 16/13 A3004 RMK AO2 T01600127
Loading
Personal Weather Stations






























Interactive Weather Map
Tropical Storm Tracking
New forecast layout! Learn more

10-Day Weather Forecast

Advertisements
Track Severe Weather on mobile